Terminal Aerodrome Forecast
Issued by NWS Denver/Boulder, CO

Home | Current Version | Previous Version | Text Only | Print | Product List | Glossary On
Versions: 1 2 3 4 5 6 7 8 9 10 11 12 13 14 15 16 17 18 19 20 21 22 23 24 25 26 27 28 29 30 31 32 33 34 35 36 37 38 39
000
FTUS45 KBOU 201244 AAA
TAFDEN
TAF AMD
KDEN 201244Z 2013/2118 22010KT P6SM FEW090 SCT220
     FM201500 26008KT P6SM FEW090 SCT140
     FM201700 35011KT P6SM SCT090 BKN140
     FM202000 03013KT P6SM VCSH SCT080 BKN120
     FM210000 34010KT P6SM SCT120 BKN200
     FM210400 28008KT P6SM FEW140 SCT220
     FM211000 35009KT P6SM FEW060 SCT080
     FM211300 05013KT P6SM SCT040 BKN060
     FM211700 09008KT P6SM FEW090 SCT140=

USA.gov is the U.S. government's official web portal to all federal, state and local government web resources and services.